sensor_id;sensor_type;location;lat;lon;timestamp;P1;durP1;ratioP1;P2;durP2;ratioP2
79622;SDS011;69100;48.228;17.284;2023-04-06T19:41:19;296.85;;;210.93;;
79622;SDS011;69100;48.228;17.284;2023-04-06T19:43:45;288.42;;;240.27;;
79622;SDS011;69100;48.228;17.284;2023-04-06T19:46:12;296.20;;;209.82;;
79622;SDS011;69100;48.228;17.284;2023-04-06T19:48:39;293.58;;;229.73;;
79622;SDS011;69100;48.228;17.284;2023-04-06T19:51:05;290.88;;;228.25;;
79622;SDS011;69100;48.228;17.284;2023-04-06T19:53:31;295.33;;;209.10;;
79622;SDS011;69100;48.228;17.284;2023-04-06T19:55:57;294.42;;;210.77;;
79622;SDS011;69100;48.228;17.284;2023-04-06T19:58:23;288.70;;;240.88;;
79622;SDS011;69100;48.228;17.284;2023-04-06T20:00:49;291.40;;;208.48;;
79622;SDS011;69100;48.228;17.284;2023-04-06T20:03:15;297.55;;;208.55;;
79622;SDS011;69100;48.228;17.284;2023-04-06T20:42:22;280.38;;;245.73;;
79622;SDS011;69100;48.228;17.284;2023-04-06T20:44:48;282.17;;;242.82;;
79622;SDS011;69100;48.228;17.284;2023-04-06T20:47:15;283.42;;;231.48;;
79622;SDS011;69100;48.228;17.284;2023-04-06T20:49:41;305.38;;;213.50;;
79622;SDS011;69100;48.228;17.284;2023-04-06T20:52:07;304.27;;;217.68;;
79622;SDS011;69100;48.228;17.284;2023-04-06T20:54:32;298.17;;;213.15;;
79622;SDS011;69100;48.228;17.284;2023-04-06T20:56:59;300.58;;;214.05;;
79622;SDS011;69100;48.228;17.284;2023-04-06T20:59:25;281.15;;;242.70;;
79622;SDS011;69100;48.228;17.284;2023-04-06T21:01:51;281.30;;;209.98;;
79622;SDS011;69100;48.228;17.284;2023-04-06T21:04:18;279.02;;;208.25;;
79622;SDS011;69100;48.228;17.284;2023-04-06T21:06:49;276.95;;;208.43;;
79622;SDS011;69100;48.228;17.284;2023-04-06T21:09:15;277.85;;;209.52;;
79622;SDS011;69100;48.228;17.284;2023-04-06T21:11:43;277.80;;;209.50;;
79622;SDS011;69100;48.228;17.284;2023-04-06T21:14:09;276.45;;;209.68;;
79622;SDS011;69100;48.228;17.284;2023-04-06T21:16:35;293.27;;;213.43;;
79622;SDS011;69100;48.228;17.284;2023-04-06T21:19:03;289.70;;;232.23;;
79622;SDS011;69100;48.228;17.284;2023-04-06T21:21:29;292.00;;;212.02;;
79622;SDS011;69100;48.228;17.284;2023-04-06T21:23:55;285.42;;;211.45;;
79622;SDS011;69100;48.228;17.284;2023-04-06T21:26:22;283.85;;;243.30;;
79622;SDS011;69100;48.228;17.284;2023-04-06T21:28:48;284.77;;;243.27;;
79622;SDS011;69100;48.228;17.284;2023-04-06T21:31:14;285.40;;;213.32;;
79622;SDS011;69100;48.228;17.284;2023-04-06T21:33:40;297.05;;;249.05;;
79622;SDS011;69100;48.228;17.284;2023-04-06T21:36:07;299.00;;;248.63;;
79622;SDS011;69100;48.228;17.284;2023-04-06T21:38:33;307.92;;;239.05;;
79622;SDS011;69100;48.228;17.284;2023-04-06T21:40:59;309.10;;;239.90;;
79622;SDS011;69100;48.228;17.284;2023-04-06T21:43:26;306.92;;;214.25;;
79622;SDS011;69100;48.228;17.284;2023-04-06T21:45:52;304.70;;;213.57;;
79622;SDS011;69100;48.228;17.284;2023-04-06T21:48:18;303.35;;;213.27;;
79622;SDS011;69100;48.228;17.284;2023-04-06T21:50:44;305.98;;;235.65;;
79622;SDS011;69100;48.228;17.284;2023-04-06T21:53:10;302.45;;;249.05;;
79622;SDS011;69100;48.228;17.284;2023-04-06T21:55:46;305.65;;;213.82;;
79622;SDS011;69100;48.228;17.284;2023-04-06T21:58:12;309.15;;;235.60;;
79622;SDS011;69100;48.228;17.284;2023-04-06T22:00:38;302.00;;;213.65;;
79622;SDS011;69100;48.228;17.284;2023-04-06T22:04:50;331.43;;;246.53;;
